Time;durP1;ratioP1;P1;durP2;ratioP2;P2;SDS_P1;SDS_P2;PMS_P1;PMS_P2;Temp;Humidity;BMP_temperature;BMP_pressure;BME280_temperature;BME280_humidity;BME280_pressure;Samples;Min_cycle;Max_cycle;Signal;HPM_P1;HPM_P2
2022/08/21 00:00:51;;;;;;;2.70;1.90;;;28.10;59.90;;;;;;5016452;28;20489;-76
2022/08/21 00:03:17;;;;;;;3.05;1.33;;;28.00;60.30;;;;;;5016377;28;20458;-77
2022/08/21 00:05:50;;;;;;;1.70;1.10;;;27.90;60.70;;;;;;5022178;28;20108;-78
2022/08/21 00:08:18;;;;;;;1.70;1.42;;;27.80;61.10;;;;;;5036288;28;20044;-77
2022/08/21 00:10:45;;;;;;;1.73;1.30;;;27.70;60.90;;;;;;5036221;28;20025;-77
2022/08/21 00:13:11;;;;;;;2.80;1.25;;;27.70;61.00;;;;;;5035999;28;20018;-77
2022/08/21 00:15:39;;;;;;;2.10;1.00;;;27.60;61.00;;;;;;5036256;28;20026;-77
2022/08/21 00:18:07;;;;;;;1.98;1.08;;;27.50;60.70;;;;;;5039688;28;20429;-78
2022/08/21 00:20:34;;;;;;;2.78;0.90;;;27.40;60.30;;;;;;5055907;28;20037;-78
2022/08/21 00:23:00;;;;;;;1.52;0.80;;;27.30;60.30;;;;;;5055770;28;20017;-77
2022/08/21 00:25:27;;;;;;;2.17;1.13;;;27.30;60.40;;;;;;5056060;28;20469;-77
2022/08/21 00:27:53;;;;;;;2.00;0.98;;;27.20;60.80;;;;;;5054214;28;20032;-78
2022/08/21 00:30:21;;;;;;;1.27;0.98;;;27.20;61.10;;;;;;5055627;28;20037;-78
2022/08/21 00:32:47;;;;;;;1.38;1.00;;;27.10;61.30;;;;;;5055530;28;20025;-78
2022/08/21 00:35:16;;;;;;;2.10;1.00;;;27.10;62.00;;;;;;5055415;28;20044;-77
2022/08/21 00:37:43;;;;;;;2.25;1.33;;;27.00;62.30;;;;;;5055349;28;20025;-78
2022/08/21 00:40:21;;;;;;;4.03;2.03;;;27.00;62.50;;;;;;5055706;28;20132;-78
2022/08/21 00:42:47;;;;;;;4.68;2.58;;;27.00;62.50;;;;;;5055702;28;20016;-78
2022/08/21 00:45:13;;;;;;;5.15;2.53;;;26.90;62.30;;;;;;5055378;28;20431;-80
2022/08/21 00:47:39;;;;;;;6.03;2.38;;;26.90;62.60;;;;;;5055026;28;20463;-80
2022/08/21 00:50:07;;;;;;;3.65;2.42;;;26.90;62.80;;;;;;5049341;28;20421;-79
2022/08/21 00:52:35;;;;;;;5.13;3.20;;;26.80;63.10;;;;;;5034830;28;20025;-80
2022/08/21 00:55:01;;;;;;;7.15;3.30;;;26.80;62.80;;;;;;5037513;28;20033;-82
2022/08/21 00:57:33;;;;;;;5.18;3.10;;;26.80;62.70;;;;;;5035269;28;20033;-79
2022/08/21 01:00:01;;;;;;;6.82;3.05;;;26.80;63.20;;;;;;5042714;28;20044;-81
2022/08/21 01:02:27;;;;;;;5.72;3.10;;;26.80;63.60;;;;;;5034405;28;20048;-81
2022/08/21 01:04:53;;;;;;;3.72;2.35;;;26.70;64.00;;;;;;5034077;28;20437;-80
2022/08/21 01:07:31;;;;;;;5.32;2.60;;;26.70;64.10;;;;;;5034118;28;20045;-80
2022/08/21 01:09:58;;;;;;;7.45;2.78;;;26.70;64.40;;;;;;5032869;28;20079;-80
2022/08/21 01:12:24;;;;;;;5.82;2.85;;;26.60;64.40;;;;;;5034074;28;20102;-80
2022/08/21 01:14:50;;;;;;;4.47;2.60;;;26.60;64.50;;;;;;5034577;28;20107;-81
2022/08/21 01:17:17;;;;;;;5.35;2.90;;;26.50;64.70;;;;;;5034585;28;20021;-80
2022/08/21 01:19:43;;;;;;;4.60;2.80;;;26.50;64.80;;;;;;5034771;28;20037;-80
2022/08/21 01:22:09;;;;;;;5.10;3.30;;;26.50;64.70;;;;;;5034431;28;20423;-80
2022/08/21 01:24:35;;;;;;;3.72;2.53;;;26.50;64.10;;;;;;5034809;28;20376;-80
2022/08/21 01:27:02;;;;;;;3.42;2.53;;;26.40;63.80;;;;;;5034563;28;20148;-81
2022/08/21 01:29:53;;;;;;;5.47;2.33;;;26.40;64.00;;;;;;5034234;28;20135;-81
2022/08/21 01:32:20;;;;;;;5.32;2.08;;;26.40;64.00;;;;;;5024735;28;20034;-79
2022/08/21 01:34:49;;;;;;;2.08;1.50;;;26.40;63.80;;;;;;5034802;28;20029;-78
2022/08/21 01:37:15;;;;;;;2.65;1.60;;;26.40;63.50;;;;;;5034551;28;20047;-78
2022/08/21 01:39:41;;;;;;;2.50;1.20;;;26.30;63.30;;;;;;5034542;28;20041;-78
2022/08/21 01:42:07;;;;;;;2.75;1.50;;;26.30;63.50;;;;;;5042180;28;20017;-78
2022/08/21 01:44:33;;;;;;;1.55;0.90;;;26.30;63.50;;;;;;5054263;28;20116;-81
2022/08/21 01:47:03;;;;;;;2.63;1.13;;;26.30;63.50;;;;;;5038166;28;20100;-80
2022/08/21 01:49:28;;;;;;;1.50;1.10;;;26.30;63.20;;;;;;5033732;28;20049;-77
2022/08/21 01:51:54;;;;;;;2.13;0.95;;;26.30;63.30;;;;;;5033689;28;20520;-76
2022/08/21 01:54:20;;;;;;;2.55;1.50;;;26.30;63.40;;;;;;5033593;28;20029;-77
2022/08/21 01:56:49;;;;;;;2.80;1.67;;;26.30;63.30;;;;;;5033367;28;20477;-77
2022/08/21 01:59:16;;;;;;;2.38;1.80;;;26.30;63.20;;;;;;5033632;28;20029;-77
2022/08/21 02:01:42;;;;;;;2.30;1.58;;;26.20;63.10;;;;;;5033140;28;20057;-76
2022/08/21 02:04:09;;;;;;;2.67;1.63;;;26.20;63.20;;;;;;5033532;28;20075;-75
2022/08/21 02:06:35;;;;;;;5.05;1.70;;;26.20;63.50;;;;;;5033308;28;20096;-77
2022/08/21 02:09:03;;;;;;;2.28;1.52;;;26.20;63.60;;;;;;5034259;28;20036;-79
2022/08/21 02:11:29;;;;;;;2.90;1.52;;;26.20;63.80;;;;;;5044111;28;20330;-82
2022/08/21 02:13:55;;;;;;;2.30;1.45;;;26.20;64.10;;;;;;5037423;28;20107;-78
2022/08/21 02:16:21;;;;;;;1.75;1.50;;;26.20;64.00;;;;;;5040992;28;20029;-78
2022/08/21 02:18:46;;;;;;;1.95;1.63;;;26.20;64.20;;;;;;5033888;28;20104;-76
2022/08/21 02:21:12;;;;;;;3.40;1.63;;;26.20;64.30;;;;;;5033832;28;20044;-80
2022/08/21 02:23:38;;;;;;;2.20;1.90;;;26.20;64.20;;;;;;5041443;28;20026;-79
2022/08/21 02:26:06;;;;;;;3.13;2.60;;;26.10;63.90;;;;;;5033501;28;20103;-78
2022/08/21 02:28:32;;;;;;;2.45;2.22;;;26.10;63.70;;;;;;5048625;28;20048;-79
2022/08/21 02:30:59;;;;;;;2.47;1.88;;;26.10;63.70;;;;;;5033764;28;20021;-79
2022/08/21 02:33:25;;;;;;;4.45;2.08;;;26.10;63.90;;;;;;5041052;28;20040;-76
2022/08/21 02:35:52;;;;;;;4.55;2.63;;;26.10;64.10;;;;;;5033293;28;20056;-80
2022/08/21 02:38:22;;;;;;;4.68;3.13;;;26.10;64.30;;;;;;5040999;28;20040;-80
2022/08/21 02:40:50;;;;;;;5.63;3.40;;;26.10;64.60;;;;;;5033320;28;20108;-80
2022/08/21 02:43:17;;;;;;;4.28;3.88;;;26.10;64.50;;;;;;5039801;28;20032;-78
2022/08/21 02:45:44;;;;;;;3.17;2.50;;;26.00;64.70;;;;;;5033571;28;20366;-77
2022/08/21 02:48:13;;;;;;;3.80;2.42;;;26.10;64.80;;;;;;5048124;28;20024;-77
2022/08/21 02:50:42;;;;;;;2.10;1.85;;;26.00;64.70;;;;;;5033470;28;20064;-77
2022/08/21 02:53:10;;;;;;;3.45;1.55;;;26.00;64.80;;;;;;5032998;28;20029;-76
2022/08/21 02:55:37;;;;;;;2.20;1.52;;;26.00;65.10;;;;;;5033279;28;20072;-76
2022/08/21 02:58:05;;;;;;;2.47;1.30;;;26.00;65.50;;;;;;5032289;28;20033;-76
2022/08/21 03:00:32;;;;;;;1.20;1.10;;;26.00;65.40;;;;;;5043724;28;20413;-76
2022/08/21 03:02:59;;;;;;;2.25;1.38;;;25.90;65.40;;;;;;5036336;28;20529;-76
2022/08/21 03:05:27;;;;;;;2.13;1.02;;;25.90;65.50;;;;;;5032933;28;20029;-76
2022/08/21 03:07:53;;;;;;;1.98;1.00;;;25.90;66.00;;;;;;5033246;28;20053;-76
2022/08/21 03:10:20;;;;;;;1.80;1.02;;;25.80;65.90;;;;;;5048687;28;20075;-75
2022/08/21 03:12:46;;;;;;;2.42;1.25;;;25.80;65.70;;;;;;5039988;28;20112;-76
2022/08/21 03:15:15;;;;;;;2.72;1.20;;;25.80;65.50;;;;;;5032612;28;20474;-76
2022/08/21 03:17:41;;;;;;;2.05;1.05;;;25.80;65.50;;;;;;5025454;28;20036;-76
2022/08/21 03:20:08;;;;;;;1.63;0.95;;;25.80;65.60;;;;;;5032622;28;20378;-76
2022/08/21 03:22:35;;;;;;;1.55;0.90;;;25.70;65.50;;;;;;5032802;28;20022;-76
2022/08/21 03:25:00;;;;;;;1.13;1.00;;;25.70;65.40;;;;;;5032642;28;20454;-73
2022/08/21 03:27:28;;;;;;;1.35;1.00;;;25.70;65.60;;;;;;5032553;28;20030;-75
2022/08/21 03:29:55;;;;;;;1.75;0.90;;;25.70;66.10;;;;;;5033036;28;20033;-76
2022/08/21 03:32:21;;;;;;;4.10;0.90;;;25.70;66.20;;;;;;5032742;28;20037;-79
2022/08/21 03:34:47;;;;;;;2.97;1.17;;;25.70;66.40;;;;;;5032778;28;20045;-80
2022/08/21 03:37:13;;;;;;;2.97;1.00;;;25.70;66.60;;;;;;5032524;28;20029;-75
2022/08/21 03:39:39;;;;;;;1.77;1.20;;;25.70;66.70;;;;;;5032927;28;20036;-76
2022/08/21 03:42:06;;;;;;;2.13;1.00;;;25.60;66.80;;;;;;5039725;28;20450;-76
2022/08/21 03:44:31;;;;;;;1.50;1.13;;;25.60;66.80;;;;;;5032575;28;20022;-76
2022/08/21 03:46:58;;;;;;;4.45;1.42;;;25.50;66.90;;;;;;5032771;28;20025;-77
2022/08/21 03:49:24;;;;;;;3.65;1.30;;;25.50;67.10;;;;;;5031362;28;20037;-76
2022/08/21 03:51:50;;;;;;;1.85;0.98;;;25.50;67.30;;;;;;5032741;28;20095;-76
2022/08/21 03:54:16;;;;;;;2.75;1.13;;;25.50;67.30;;;;;;5039442;28;20466;-77
2022/08/21 03:56:42;;;;;;;1.92;1.30;;;25.50;67.40;;;;;;5033233;28;20048;-75
2022/08/21 03:59:08;;;;;;;2.70;2.13;;;25.40;67.60;;;;;;5032356;28;20076;-78
2022/08/21 04:01:35;;;;;;;3.00;2.35;;;25.40;67.90;;;;;;5043296;28;20024;-77
2022/08/21 04:04:02;;;;;;;3.33;1.90;;;25.30;68.30;;;;;;5035695;28;20029;-77
2022/08/21 04:06:29;;;;;;;2.42;2.03;;;25.30;68.80;;;;;;5034160;28;20079;-77
2022/08/21 04:08:54;;;;;;;2.47;2.03;;;25.20;69.20;;;;;;5026392;28;20035;-77
2022/08/21 04:11:20;;;;;;;4.05;2.00;;;25.20;69.60;;;;;;5034336;28;20025;-78
2022/08/21 04:13:48;;;;;;;3.15;1.90;;;25.20;69.80;;;;;;5035636;28;20048;-76
2022/08/21 04:16:14;;;;;;;2.20;1.63;;;25.20;69.90;;;;;;5036095;28;20351;-76
2022/08/21 04:18:40;;;;;;;2.45;1.52;;;25.10;70.00;;;;;;5036499;28;20660;-77
2022/08/21 04:21:09;;;;;;;2.25;1.60;;;25.10;70.30;;;;;;5034627;28;20017;-78
2022/08/21 04:23:35;;;;;;;3.30;1.25;;;25.00;70.40;;;;;;5035619;28;20025;-77
2022/08/21 04:26:01;;;;;;;2.53;1.45;;;25.00;70.70;;;;;;5035817;28;20018;-78
2022/08/21 04:28:27;;;;;;;5.47;1.85;;;24.90;71.00;;;;;;5042732;28;20480;-77
2022/08/21 04:30:54;;;;;;;5.38;1.42;;;24.90;71.30;;;;;;5043743;28;20029;-76
2022/08/21 04:33:21;;;;;;;3.00;1.75;;;24.80;71.50;;;;;;5035433;28;20095;-81
2022/08/21 04:35:47;;;;;;;3.22;1.80;;;24.80;71.70;;;;;;5035470;28;20104;-81
2022/08/21 04:38:13;;;;;;;3.50;1.80;;;24.80;72.00;;;;;;5040292;28;20036;-81
2022/08/21 04:40:39;;;;;;;2.88;1.65;;;24.80;72.20;;;;;;5038342;28;20025;-80
2022/08/21 04:43:08;;;;;;;5.28;1.60;;;24.70;72.30;;;;;;5043544;28;20017;-78
2022/08/21 04:45:37;;;;;;;2.63;1.50;;;24.70;72.50;;;;;;5035272;28;20025;-76
2022/08/21 04:48:07;;;;;;;2.47;1.52;;;24.70;73.30;;;;;;5034935;28;20033;-76
2022/08/21 04:51:05;;;;;;;3.15;1.52;;;24.60;73.50;;;;;;5034489;28;20037;-78
2022/08/21 04:53:36;;;;;;;2.95;1.40;;;24.60;73.30;;;;;;5030063;28;20037;-81
2022/08/21 04:56:08;;;;;;;1.83;1.50;;;24.60;73.50;;;;;;5035552;28;20053;-80
2022/08/21 04:58:42;;;;;;;1.40;1.30;;;24.60;73.80;;;;;;5035388;28;20124;-82
2022/08/21 05:01:13;;;;;;;2.40;1.30;;;24.50;74.00;;;;;;5034884;28;20029;-82
2022/08/21 05:03:41;;;;;;;1.83;1.40;;;24.50;74.10;;;;;;5035524;28;20080;-82
2022/08/21 05:06:10;;;;;;;2.42;1.35;;;24.50;74.00;;;;;;5044252;28;20016;-84
2022/08/21 05:08:37;;;;;;;2.17;1.60;;;24.50;74.10;;;;;;5051427;28;20025;-85
2022/08/21 05:11:04;;;;;;;1.60;1.23;;;24.50;74.30;;;;;;5039073;28;20021;-80
2022/08/21 05:13:30;;;;;;;3.38;1.40;;;24.50;74.50;;;;;;5042956;28;20034;-79
2022/08/21 05:15:56;;;;;;;2.60;1.63;;;24.50;74.70;;;;;;5040899;28;20009;-79
2022/08/21 05:18:21;;;;;;;2.25;1.80;;;24.50;74.70;;;;;;5037314;28;20541;-79
2022/08/21 05:20:47;;;;;;;3.40;1.30;;;24.50;74.80;;;;;;5033875;28;20026;-80
2022/08/21 05:23:14;;;;;;;2.47;1.38;;;24.50;74.90;;;;;;5043838;28;20040;-80
2022/08/21 05:25:40;;;;;;;3.50;1.80;;;24.50;75.00;;;;;;5035829;28;20359;-81
2022/08/21 05:28:06;;;;;;;2.20;1.35;;;24.50;75.10;;;;;;5039635;28;20029;-82
2022/08/21 05:30:33;;;;;;;4.25;1.70;;;24.60;75.00;;;;;;5037984;28;20030;-83
2022/08/21 05:33:01;;;;;;;6.05;1.65;;;24.60;74.90;;;;;;5034794;28;20595;-82
2022/08/21 05:35:28;;;;;;;4.03;1.40;;;24.50;74.80;;;;;;5035100;28;20351;-83
2022/08/21 05:37:54;;;;;;;2.72;1.60;;;24.60;74.90;;;;;;5033797;28;20496;-83
2022/08/21 05:40:20;;;;;;;3.33;1.50;;;24.60;75.10;;;;;;5039146;28;20028;-83
2022/08/21 05:42:46;;;;;;;1.73;1.40;;;24.60;75.30;;;;;;5045157;28;20150;-83
2022/08/21 05:45:11;;;;;;;3.92;1.40;;;24.70;75.70;;;;;;5035705;28;20076;-82
2022/08/21 05:47:37;;;;;;;3.92;1.40;;;24.70;75.50;;;;;;5036231;28;20048;-85
2022/08/21 05:50:04;;;;;;;2.50;1.40;;;24.80;75.30;;;;;;5044909;28;20057;-84
2022/08/21 05:52:30;;;;;;;1.65;1.20;;;24.80;74.90;;;;;;5045987;28;20037;-84
2022/08/21 05:54:56;;;;;;;1.75;1.23;;;24.80;75.00;;;;;;5037056;28;20037;-84
2022/08/21 05:57:22;;;;;;;1.75;1.25;;;24.90;75.10;;;;;;5041833;28;20040;-86
2022/08/21 05:59:48;;;;;;;1.65;1.10;;;24.90;75.20;;;;;;5035831;28;20022;-87
2022/08/21 06:02:16;;;;;;;2.30;1.17;;;24.90;75.10;;;;;;5042400;28;20376;-87
2022/08/21 06:04:42;;;;;;;1.63;1.42;;;24.90;75.00;;;;;;5040028;28;20076;-87
2022/08/21 06:07:08;;;;;;;1.95;1.33;;;25.00;74.90;;;;;;5036830;28;20057;-86
2022/08/21 06:09:34;;;;;;;2.88;1.50;;;25.00;74.20;;;;;;5045146;28;20021;-87
2022/08/21 06:12:08;;;;;;;1.35;1.02;;;25.00;74.20;;;;;;5045094;28;20501;-84
2022/08/21 06:14:34;;;;;;;8.13;1.30;;;25.00;74.00;;;;;;5043287;28;20051;-82
2022/08/21 06:17:11;;;;;;;10.23;1.50;;;25.10;74.20;;;;;;5043425;28;20091;-82
2022/08/21 06:19:38;;;;;;;2.53;1.35;;;25.10;74.10;;;;;;5035714;28;20060;-84
2022/08/21 06:22:04;;;;;;;4.05;1.80;;;25.10;73.90;;;;;;5036914;28;20029;-84
2022/08/21 06:24:30;;;;;;;2.65;1.40;;;25.20;73.20;;;;;;5036649;28;20044;-83
2022/08/21 06:26:56;;;;;;;2.55;1.30;;;25.20;72.80;;;;;;5036005;28;20025;-84
2022/08/21 06:29:22;;;;;;;1.98;1.70;;;25.20;72.80;;;;;;5036655;28;20037;-83
2022/08/21 06:31:50;;;;;;;6.07;1.95;;;25.20;72.40;;;;;;5034478;28;20025;-84
2022/08/21 06:34:16;;;;;;;2.47;1.70;;;25.30;72.40;;;;;;5036859;28;20029;-82
2022/08/21 06:36:42;;;;;;;3.25;1.70;;;25.30;72.60;;;;;;5044898;28;20033;-84
2022/08/21 06:39:07;;;;;;;3.70;2.10;;;25.30;72.40;;;;;;5036837;28;20096;-85
2022/08/21 06:41:33;;;;;;;2.63;1.92;;;25.30;71.70;;;;;;5044836;28;20068;-83
2022/08/21 06:43:59;;;;;;;2.58;1.77;;;25.30;72.10;;;;;;5028506;28;20053;-84
2022/08/21 06:46:28;;;;;;;2.90;1.95;;;25.40;71.70;;;;;;5043831;28;20087;-84
2022/08/21 06:48:54;;;;;;;3.10;1.67;;;25.40;71.80;;;;;;5036107;28;20056;-84
2022/08/21 06:51:20;;;;;;;4.43;1.70;;;25.40;71.80;;;;;;5040927;28;20096;-83
2022/08/21 06:53:45;;;;;;;2.35;1.52;;;25.50;71.90;;;;;;5042375;28;20033;-80
2022/08/21 06:56:11;;;;;;;1.45;1.13;;;25.50;71.90;;;;;;5033582;28;20033;-82
2022/08/21 06:58:37;;;;;;;1.98;1.33;;;25.50;71.50;;;;;;5035375;28;20021;-83
2022/08/21 07:01:04;;;;;;;1.73;0.90;;;25.60;71.30;;;;;;5035052;28;20032;-82
2022/08/21 07:03:39;;;;;;;1.33;1.00;;;25.60;71.10;;;;;;5045157;28;20112;-82
2022/08/21 07:06:06;;;;;;;2.00;0.90;;;25.70;71.00;;;;;;5034392;28;20038;-79
2022/08/21 07:08:32;;;;;;;1.23;0.80;;;25.80;70.90;;;;;;5025257;28;20026;-76
2022/08/21 07:11:03;;;;;;;1.80;0.88;;;25.80;70.60;;;;;;5031622;28;20091;-78
2022/08/21 07:13:31;;;;;;;3.10;0.95;;;25.80;70.60;;;;;;5031941;28;20539;-78
2022/08/21 07:15:57;;;;;;;2.03;0.98;;;25.80;70.30;;;;;;5021130;28;20450;-78
2022/08/21 07:18:22;;;;;;;3.13;0.93;;;25.90;70.40;;;;;;5040574;28;20060;-78
2022/08/21 07:20:48;;;;;;;2.13;0.70;;;25.90;70.10;;;;;;5023056;28;20050;-78
2022/08/21 07:23:30;;;;;;;4.18;1.38;;;26.00;70.00;;;;;;5023381;28;20552;-78
2022/08/21 07:25:56;;;;;;;2.00;1.25;;;26.00;69.10;;;;;;5028321;28;20026;-78
2022/08/21 07:28:22;;;;;;;7.53;1.58;;;25.90;69.10;;;;;;5031250;28;20544;-78
2022/08/21 07:30:53;;;;;;;7.25;1.58;;;25.90;69.50;;;;;;5013996;28;20095;-75
2022/08/21 07:33:19;;;;;;;1.42;1.00;;;25.80;69.00;;;;;;5038708;28;20029;-75
2022/08/21 07:35:45;;;;;;;21.88;2.85;;;25.80;69.30;;;;;;5031322;28;20029;-80
2022/08/21 07:38:11;;;;;;;3.45;1.40;;;25.80;69.40;;;;;;5031294;28;20079;-79
2022/08/21 07:40:36;;;;;;;3.33;1.55;;;25.90;69.50;;;;;;5025613;28;20056;-79
2022/08/21 07:43:03;;;;;;;4.05;1.98;;;26.00;69.80;;;;;;5027583;28;20024;-79
2022/08/21 07:45:29;;;;;;;4.38;2.30;;;26.10;69.50;;;;;;5030585;28;20516;-79
2022/08/21 07:47:56;;;;;;;2.03;1.50;;;26.10;70.30;;;;;;5027531;28;20032;-79
2022/08/21 07:50:21;;;;;;;3.63;1.40;;;26.20;69.60;;;;;;5027558;28;20363;-79
2022/08/21 07:52:47;;;;;;;3.00;1.67;;;26.30;69.80;;;;;;5021252;28;20087;-79
2022/08/21 07:55:17;;;;;;;2.88;1.33;;;26.30;69.60;;;;;;5029954;28;20045;-79
2022/08/21 07:57:44;;;;;;;4.88;1.73;;;26.40;69.40;;;;;;5028894;28;20049;-79
2022/08/21 08:00:14;;;;;;;1.67;1.25;;;26.50;69.50;;;;;;5036273;28;20036;-79
2022/08/21 08:02:39;;;;;;;;;;;26.60;69.60;;;;;;5023820;28;20025;-79
2022/08/21 08:05:09;;;;;;;1.55;1.15;;;26.70;69.80;;;;;;5026831;28;19916;-79
2022/08/21 08:07:35;;;;;;;2.53;1.30;;;26.80;69.90;;;;;;5035163;28;20044;-83
2022/08/21 08:10:02;;;;;;;2.35;1.30;;;26.90;69.80;;;;;;5019712;28;20045;-83
2022/08/21 08:12:29;;;;;;;3.45;1.33;;;27.00;69.80;;;;;;5027368;28;20471;-80
2022/08/21 08:14:59;;;;;;;2.38;1.33;;;27.00;69.80;;;;;;5023036;28;20084;-80
2022/08/21 08:17:25;;;;;;;2.97;1.55;;;27.20;70.00;;;;;;5033300;28;20478;-80
2022/08/21 08:19:51;;;;;;;1.92;1.27;;;27.30;69.70;;;;;;5016064;28;20034;-80
2022/08/21 08:22:19;;;;;;;2.42;1.33;;;27.40;69.70;;;;;;5034058;28;20044;-80
2022/08/21 08:24:46;;;;;;;1.77;1.00;;;27.50;69.80;;;;;;5034039;28;20030;-80
2022/08/21 08:27:12;;;;;;;2.33;1.00;;;27.60;69.40;;;;;;5053923;28;20037;-80
2022/08/21 08:29:38;;;;;;;1.80;1.00;;;27.60;68.90;;;;;;5050878;28;20103;-80
2022/08/21 08:32:06;;;;;;;1.55;1.17;;;27.60;68.60;;;;;;5035225;28;20024;-80
2022/08/21 08:34:33;;;;;;;2.28;1.17;;;27.70;68.30;;;;;;5034327;28;20029;-80
2022/08/21 08:36:58;;;;;;;4.35;1.40;;;27.70;68.30;;;;;;5050233;28;20024;-80
2022/08/21 08:39:25;;;;;;;1.48;1.27;;;27.80;68.60;;;;;;5054363;28;20423;-80
2022/08/21 08:42:03;;;;;;;2.35;1.17;;;27.90;68.40;;;;;;5054988;28;20051;-80
2022/08/21 08:44:34;;;;;;;1.45;1.15;;;27.90;68.20;;;;;;5054990;28;20063;-80
2022/08/21 08:47:01;;;;;;;3.25;1.05;;;27.90;67.40;;;;;;5054571;28;20056;-80
2022/08/21 08:49:36;;;;;;;2.80;1.30;;;28.00;67.50;;;;;;5055022;28;20091;-80
2022/08/21 08:52:18;;;;;;;2.03;1.30;;;28.10;66.80;;;;;;5052107;28;20027;-80
2022/08/21 08:54:51;;;;;;;2.05;1.00;;;28.10;66.80;;;;;;5037655;28;20038;-80
2022/08/21 08:57:20;;;;;;;2.88;0.95;;;28.20;66.80;;;;;;5035010;28;20025;-80
2022/08/21 08:59:49;;;;;;;2.20;0.90;;;28.30;67.10;;;;;;5045533;28;20025;-80
2022/08/21 09:02:16;;;;;;;1.15;1.00;;;28.40;67.40;;;;;;5043931;28;20021;-80
2022/08/21 09:04:45;;;;;;;1.55;1.20;;;28.50;67.40;;;;;;5040665;28;20026;-81
2022/08/21 09:07:34;;;;;;;2.45;1.25;;;28.60;67.30;;;;;;5040274;28;20021;-81
2022/08/21 09:10:12;;;;;;;4.93;0.95;;;28.80;66.50;;;;;;5032093;28;20091;-81
2022/08/21 09:13:06;;;;;;;3.80;1.23;;;28.90;65.70;;;;;;5049947;28;20087;-76
2022/08/21 09:15:53;;;;;;;3.35;1.10;;;29.00;63.90;;;;;;5035075;28;20068;-76
2022/08/21 09:18:34;;;;;;;1.35;0.95;;;29.00;65.10;;;;;;5035082;28;20040;-76
2022/08/21 09:21:09;;;;;;;1.90;0.90;;;29.10;65.50;;;;;;5034795;28;20029;-77
2022/08/21 09:23:38;;;;;;;2.50;1.08;;;29.20;66.20;;;;;;5034755;28;20493;-77
2022/08/21 09:26:14;;;;;;;5.32;1.08;;;29.40;66.80;;;;;;5034767;28;20061;-77
2022/08/21 09:28:43;;;;;;;2.63;1.30;;;29.50;66.80;;;;;;5034028;28;20021;-76
2022/08/21 09:31:32;;;;;;;2.35;1.10;;;29.60;66.40;;;;;;5042460;28;20098;-76
2022/08/21 09:33:59;;;;;;;1.05;0.95;;;29.70;66.70;;;;;;5027181;28;20030;-76
2022/08/21 09:36:54;;;;;;;2.00;1.02;;;29.80;66.50;;;;;;5034409;28;20481;-76
2022/08/21 09:39:37;;;;;;;2.33;1.10;;;30.00;66.40;;;;;;5029944;28;20073;-76
2022/08/21 09:42:08;;;;;;;3.60;1.48;;;30.10;65.90;;;;;;5032980;28;20022;-76
2022/08/21 09:44:43;;;;;;;1.50;0.95;;;30.10;65.20;;;;;;5033903;28;20036;-76
2022/08/21 09:47:14;;;;;;;7.63;1.55;;;30.20;65.30;;;;;;5034284;28;20108;-76
2022/08/21 09:49:42;;;;;;;1.35;0.93;;;30.30;65.60;;;;;;5032967;28;20145;-76
2022/08/21 09:52:21;;;;;;;1.92;1.25;;;30.40;65.60;;;;;;5034028;28;20033;-76
2022/08/21 09:54:52;;;;;;;2.13;1.02;;;30.50;65.10;;;;;;5034123;28;20040;-76
2022/08/21 09:57:38;;;;;;;2.08;0.93;;;30.50;65.10;;;;;;5034091;28;20466;-76
2022/08/21 10:00:22;;;;;;;1.52;0.95;;;30.70;65.30;;;;;;5034195;28;20108;-76
2022/08/21 10:02:48;;;;;;;3.60;1.13;;;30.80;65.60;;;;;;5034312;28;20029;-76
2022/08/21 10:05:26;;;;;;;2.60;1.35;;;30.90;65.70;;;;;;5034287;28;20064;-76
2022/08/21 10:07:52;;;;;;;4.53;1.30;;;31.00;65.10;;;;;;5051315;28;20127;-76
2022/08/21 10:10:26;;;;;;;2.50;1.00;;;31.10;65.30;;;;;;5053853;28;20123;-76
2022/08/21 10:13:37;;;;;;;2.60;1.27;;;31.20;65.20;;;;;;5053580;28;20040;-76
2022/08/21 10:16:06;;;;;;;3.15;1.40;;;31.30;64.80;;;;;;5053896;28;20095;-76
2022/08/21 10:18:53;;;;;;;2.33;1.15;;;31.50;64.60;;;;;;5052612;28;20025;-77
2022/08/21 10:21:42;;;;;;;2.95;1.35;;;31.50;63.50;;;;;;5013872;28;20026;-76
2022/08/21 10:24:10;;;;;;;1.33;0.80;;;31.60;63.70;;;;;;5013925;28;20037;-76
2022/08/21 10:26:56;;;;;;;2.33;1.08;;;31.70;63.70;;;;;;5012806;28;20034;-76
2022/08/21 10:29:46;;;;;;;2.15;0.98;;;31.80;63.70;;;;;;5014000;28;20036;-76
2022/08/21 10:32:39;;;;;;;1.83;1.23;;;32.00;63.60;;;;;;5027999;28;20041;-76
2022/08/21 10:35:30;;;;;;;5.50;1.20;;;32.10;63.40;;;;;;5033445;28;20405;-77
2022/08/21 10:38:08;;;;;;;2.80;1.50;;;32.30;63.10;;;;;;5033685;28;20112;-76
2022/08/21 10:40:52;;;;;;;3.45;0.90;;;32.40;62.50;;;;;;5033665;28;20030;-76
2022/08/21 10:43:27;;;;;;;3.60;1.23;;;32.50;61.90;;;;;;5033586;28;20143;-76
2022/08/21 10:46:11;;;;;;;2.78;0.73;;;32.60;62.30;;;;;;5033493;28;20152;-77
2022/08/21 10:49:00;;;;;;;1.88;1.08;;;32.70;61.70;;;;;;5033042;28;20064;-76
2022/08/21 10:51:38;;;;;;;3.67;1.10;;;32.80;61.60;;;;;;5030395;28;20478;-76
2022/08/21 10:54:17;;;;;;;2.05;1.00;;;32.90;61.50;;;;;;5025271;28;20052;-77
2022/08/21 10:56:45;;;;;;;2.38;1.10;;;33.00;61.10;;;;;;5013608;28;20466;-80
2022/08/21 10:59:48;;;;;;;3.97;1.20;;;33.10;61.10;;;;;;5023308;28;20056;-81
2022/08/21 11:02:23;;;;;;;1.63;0.93;;;33.20;60.40;;;;;;5039691;28;20072;-80
2022/08/21 11:05:09;;;;;;;2.45;0.95;;;33.30;60.50;;;;;;5052883;28;20079;-80
2022/08/21 11:08:02;;;;;;;2.35;1.08;;;33.40;60.40;;;;;;5045373;28;20041;-80
2022/08/21 11:10:38;;;;;;;1.77;1.08;;;33.60;59.90;;;;;;5024014;28;20502;-80
2022/08/21 11:13:42;;;;;;;3.45;0.98;;;33.70;59.50;;;;;;5013878;28;20547;-80
2022/08/21 11:16:32;;;;;;;1.75;1.20;;;33.80;58.30;;;;;;5026051;28;20410;-80
2022/08/21 11:19:28;;;;;;;1.98;1.17;;;33.90;58.00;;;;;;5031506;28;21090;-80
2022/08/21 11:22:06;;;;;;;1.58;1.02;;;34.00;57.90;;;;;;5035512;28;20033;-80
2022/08/21 11:24:40;;;;;;;2.80;1.20;;;34.10;58.00;;;;;;5037224;28;20470;-80
2022/08/21 11:27:33;;;;;;;3.95;1.30;;;34.20;58.20;;;;;;5020104;28;20026;-80
2022/08/21 11:30:00;;;;;;;3.97;1.10;;;34.40;58.20;;;;;;5017668;28;20208;-80
2022/08/21 11:33:02;;;;;;;2.22;1.08;;;34.60;58.20;;;;;;5040747;28;20381;-80
2022/08/21 11:35:56;;;;;;;2.70;1.05;;;34.80;56.80;;;;;;5044690;28;20056;-80
2022/08/21 11:38:38;;;;;;;3.17;1.23;;;35.00;56.70;;;;;;5037162;28;20017;-80
2022/08/21 11:41:27;;;;;;;2.38;1.10;;;35.30;56.70;;;;;;5032013;28;20021;-80
2022/08/21 11:43:59;;;;;;;3.75;0.90;;;35.40;54.00;;;;;;5039729;28;20021;-80
2022/08/21 11:46:59;;;;;;;3.45;1.20;;;35.50;55.90;;;;;;5016877;28;20114;-80
2022/08/21 11:49:45;;;;;;;1.88;1.10;;;35.70;55.10;;;;;;5009174;28;20038;-80
2022/08/21 11:52:27;;;;;;;1.08;0.80;;;35.80;55.20;;;;;;5056902;28;20028;-81
2022/08/21 11:55:09;;;;;;;2.60;1.27;;;36.00;55.40;;;;;;5056985;28;20021;-80
2022/08/21 11:57:47;;;;;;;2.70;0.90;;;36.30;54.90;;;;;;5017099;28;20085;-80
2022/08/21 12:00:20;;;;;;;3.70;1.40;;;36.50;53.90;;;;;;5038888;28;20026;-80
2022/08/21 12:02:50;;;;;;;2.63;1.20;;;36.70;53.20;;;;;;5030116;28;20462;-81
2022/08/21 12:05:50;;;;;;;4.85;1.10;;;36.90;52.40;;;;;;5041373;28;20026;-81
2022/08/21 12:08:31;;;;;;;2.78;1.50;;;37.00;52.90;;;;;;5040909;28;20054;-81
2022/08/21 12:11:20;;;;;;;3.05;1.10;;;37.10;51.40;;;;;;5034231;28;20021;-81
2022/08/21 12:13:59;;;;;;;3.53;1.60;;;37.20;50.80;;;;;;5029407;28;20045;-82
2022/08/21 12:16:33;;;;;;;;;;;37.30;51.00;;;;;;5033551;28;20493;-87
2022/08/21 12:19:22;;;;;;;1.90;1.20;;;37.30;52.00;;;;;;5034704;28;19912;-79
2022/08/21 12:22:08;;;;;;;3.08;1.30;;;37.40;50.30;;;;;;5043377;28;20049;-84
2022/08/21 12:24:49;;;;;;;4.80;0.90;;;37.50;50.60;;;;;;5027746;28;20479;-86
2022/08/21 12:27:25;;;;;;;1.70;0.90;;;37.50;49.80;;;;;;5052423;28;20021;-81
2022/08/21 12:30:01;;;;;;;1.75;1.00;;;37.40;50.00;;;;;;5042523;28;20037;-86
2022/08/21 12:32:42;;;;;;;2.90;1.00;;;37.40;50.30;;;;;;5029044;28;20025;-79
2022/08/21 12:35:11;;;;;;;1.05;0.60;;;37.40;50.70;;;;;;5035357;28;20051;-84
2022/08/21 12:37:44;;;;;;;1.60;1.02;;;37.50;51.50;;;;;;5037959;28;20143;-81
2022/08/21 12:40:29;;;;;;;1.67;0.73;;;37.60;50.30;;;;;;5015972;28;20034;-86
2022/08/21 12:42:59;;;;;;;3.83;1.25;;;37.50;51.00;;;;;;5029780;28;20057;-81
2022/08/21 12:45:34;;;;;;;2.80;1.10;;;37.50;51.60;;;;;;5018942;28;20040;-86
2022/08/21 12:48:48;;;;;;;3.63;1.08;;;37.70;51.10;;;;;;5025787;28;20033;-81
2022/08/21 12:51:23;;;;;;;1.60;0.82;;;37.60;50.40;;;;;;5014895;28;20061;-81
2022/08/21 12:53:51;;;;;;;3.70;0.90;;;37.70;50.60;;;;;;5013044;28;20121;-80
2022/08/21 12:56:23;;;;;;;3.47;1.02;;;37.70;50.90;;;;;;5033513;28;20048;-79
2022/08/21 12:58:56;;;;;;;2.08;0.88;;;37.60;50.40;;;;;;5038398;28;20032;-84
2022/08/21 13:01:33;;;;;;;1.60;0.93;;;37.50;50.50;;;;;;5030498;28;20637;-79
2022/08/21 13:04:07;;;;;;;2.40;1.10;;;37.50;49.90;;;;;;5038014;28;20068;-80
2022/08/21 13:06:43;;;;;;;2.60;1.13;;;37.50;50.30;;;;;;5053039;28;20473;-80
2022/08/21 13:09:16;;;;;;;3.97;1.30;;;37.50;50.30;;;;;;5050182;28;20025;-86